createdAt,value
2023-03-29T00:02:30.370Z,0.15
2023-03-29T00:04:57.913Z,0.43
2023-03-29T00:07:26.109Z,0.20
2023-03-29T00:09:53.108Z,0.25
2023-03-29T00:12:19.798Z,0.95
2023-03-29T00:14:46.454Z,0.47
2023-03-29T00:17:13.209Z,0.52
2023-03-29T00:19:39.966Z,0.80
2023-03-29T00:22:06.656Z,0.90
2023-03-29T00:24:33.445Z,0.30
2023-03-29T00:27:00.090Z,0.50
2023-03-29T00:29:26.706Z,0.45
2023-03-29T00:31:56.235Z,0.43
2023-03-29T00:34:23.436Z,0.30
2023-03-29T00:36:50.977Z,0.40
2023-03-29T00:39:18.261Z,0.35
2023-03-29T00:41:51.148Z,0.50
2023-03-29T00:44:55.845Z,0.22
2023-03-29T00:47:25.453Z,0.65
2023-03-29T00:49:52.286Z,1.10
2023-03-29T00:52:21.366Z,0.20
2023-03-29T00:54:49.818Z,0.30
2023-03-29T00:57:16.563Z,0.10
2023-03-29T00:59:43.436Z,0.40
2023-03-29T01:02:10.479Z,0.30
2023-03-29T01:05:05.669Z,0.40
2023-03-29T01:07:40.943Z,0.30
2023-03-29T01:10:40.716Z,0.50
2023-03-29T01:13:12.078Z,0.10
2023-03-29T01:15:40.884Z,0.52
2023-03-29T01:18:08.884Z,0.68
2023-03-29T01:20:51.128Z,0.40
2023-03-29T01:23:46.866Z,0.40
2023-03-29T01:26:45.428Z,0.22
2023-03-29T01:29:17.802Z,0.47
2023-03-29T01:31:54.911Z,0.30
2023-03-29T01:34:25.808Z,0.50
2023-03-29T01:37:04.484Z,0.28
2023-03-29T01:39:31.581Z,0.75
2023-03-29T01:42:04.433Z,0.30
2023-03-29T01:44:35.458Z,0.25
2023-03-29T01:47:11.436Z,0.22
2023-03-29T01:49:42.376Z,0.50
2023-03-29T01:52:27.381Z,0.17
2023-03-29T01:54:56.916Z,0.20
2023-03-29T01:57:25.178Z,0.50
2023-03-29T01:59:51.948Z,0.20
2023-03-29T02:02:18.655Z,0.43
2023-03-29T02:04:50.154Z,0.32
2023-03-29T02:07:17.826Z,0.32
2023-03-29T02:09:44.457Z,0.32
2023-03-29T02:12:11.408Z,0.20
2023-03-29T02:14:38.325Z,0.40
2023-03-29T02:17:20.889Z,0.40
2023-03-29T02:19:50.307Z,0.40
2023-03-29T02:24:45.405Z,0.65
2023-03-29T02:27:12.334Z,0.40
2023-03-29T02:29:38.937Z,0.10
2023-03-29T02:32:21.915Z,0.20
2023-03-29T02:34:53.609Z,0.20
2023-03-29T02:37:20.452Z,0.10
2023-03-29T02:39:48.617Z,0.10
2023-03-29T02:42:17.607Z,0.40
2023-03-29T02:44:44.429Z,0.40
2023-03-29T02:47:15.800Z,0.60
2023-03-29T02:49:42.908Z,0.30
2023-03-29T02:52:12.374Z,0.43
2023-03-29T02:54:43.099Z,0.22
2023-03-29T02:57:10.300Z,0.20
2023-03-29T02:59:38.532Z,0.28
2023-03-29T03:02:05.457Z,0.40
2023-03-29T03:04:34.207Z,0.70
2023-03-29T03:07:01.294Z,0.57
2023-03-29T03:09:28.358Z,0.52
2023-03-29T03:11:55.028Z,0.20
2023-03-29T03:14:22.937Z,0.30
2023-03-29T03:16:50.078Z,0.40
2023-03-29T03:19:16.975Z,0.30
2023-03-29T03:21:44.077Z,0.35
2023-03-29T03:24:10.742Z,0.57
2023-03-29T03:26:38.291Z,0.30
2023-03-29T03:29:05.300Z,0.43
2023-03-29T03:31:33.668Z,0.57
2023-03-29T03:34:00.430Z,0.63
2023-03-29T03:36:29.114Z,0.60
2023-03-29T03:38:55.895Z,0.70
2023-03-29T03:41:22.831Z,1.98
2023-03-29T03:43:49.611Z,1.25
2023-03-29T03:46:17.218Z,0.65
2023-03-29T03:48:44.789Z,0.60
2023-03-29T03:51:11.947Z,1.85
2023-03-29T03:53:38.774Z,0.90
2023-03-29T03:56:09.262Z,0.75
2023-03-29T03:58:36.566Z,0.77
2023-03-29T04:01:03.882Z,1.00
2023-03-29T04:03:31.769Z,0.40
2023-03-29T04:06:02.062Z,0.70
2023-03-29T04:08:28.824Z,0.30
2023-03-29T04:10:56.839Z,0.30
2023-03-29T04:13:23.596Z,0.70
2023-03-29T04:15:54.172Z,1.25
2023-03-29T04:18:21.460Z,1.17
2023-03-29T04:20:48.335Z,0.55
2023-03-29T04:23:15.339Z,0.57
2023-03-29T04:25:42.018Z,0.63
2023-03-29T04:28:09.659Z,0.82
2023-03-29T04:30:36.331Z,0.85
2023-03-29T04:33:03.185Z,1.10
2023-03-29T04:35:30.119Z,0.80
2023-03-29T04:37:57.207Z,0.68
2023-03-29T04:40:24.026Z,0.82
2023-03-29T04:42:51.761Z,0.75
2023-03-29T04:45:18.599Z,0.80
2023-03-29T04:47:45.891Z,1.10
2023-03-29T04:50:12.922Z,0.80
2023-03-29T04:52:39.697Z,0.93
2023-03-29T04:55:07.938Z,0.60
2023-03-29T04:57:34.657Z,0.93
2023-03-29T05:00:01.428Z,1.00
2023-03-29T05:02:30.983Z,0.77
2023-03-29T05:04:58.806Z,1.40
2023-03-29T05:07:25.503Z,0.80
2023-03-29T05:09:52.127Z,1.83
2023-03-29T05:12:18.800Z,0.60
2023-03-29T05:14:45.979Z,1.40
2023-03-29T05:17:12.720Z,0.80
2023-03-29T05:19:39.339Z,0.90
2023-03-29T05:22:06.015Z,1.73
2023-03-29T05:24:32.747Z,2.00
2023-03-29T05:26:59.594Z,0.35
2023-03-29T05:29:26.701Z,0.60
2023-03-29T05:31:54.205Z,1.58
2023-03-29T05:34:20.987Z,0.90
2023-03-29T05:36:49.107Z,1.30
2023-03-29T05:39:15.807Z,0.88
2023-03-29T05:41:42.458Z,1.27
2023-03-29T05:44:09.223Z,1.63
2023-03-29T05:46:36.008Z,0.70
2023-03-29T05:49:02.776Z,0.90
2023-03-29T05:51:29.498Z,1.17
2023-03-29T05:53:56.300Z,1.17
2023-03-29T05:56:22.961Z,0.68
2023-03-29T05:58:49.688Z,1.13
2023-03-29T06:01:17.969Z,0.90
2023-03-29T06:03:46.261Z,0.73
2023-03-29T06:06:15.287Z,0.45
2023-03-29T06:08:43.364Z,0.70
2023-03-29T06:11:10.893Z,0.80
2023-03-29T06:13:39.043Z,0.77
2023-03-29T06:16:06.465Z,0.40
2023-03-29T06:18:33.428Z,0.95
2023-03-29T06:21:02.139Z,2.00
2023-03-29T06:23:29.376Z,2.13
2023-03-29T06:25:56.379Z,2.53
2023-03-29T06:28:24.030Z,1.25
2023-03-29T06:30:50.708Z,0.85
2023-03-29T06:33:18.852Z,1.25
2023-03-29T06:35:47.139Z,0.60
2023-03-29T06:38:15.226Z,1.88
2023-03-29T06:40:43.241Z,0.75
2023-03-29T06:43:10.041Z,0.38
2023-03-29T06:45:37.430Z,1.35
2023-03-29T06:48:04.682Z,0.93
2023-03-29T06:50:31.391Z,0.35
2023-03-29T06:52:58.447Z,0.63
2023-03-29T06:55:26.175Z,0.20
2023-03-29T06:57:54.045Z,4.10
2023-03-29T07:00:30.768Z,0.47
2023-03-29T07:02:58.778Z,0.90
2023-03-29T07:05:28.691Z,1.00
2023-03-29T07:07:57.157Z,0.95
2023-03-29T07:10:38.441Z,0.88
2023-03-29T07:13:06.204Z,0.80
2023-03-29T07:15:33.303Z,0.47
2023-03-29T07:18:01.053Z,0.65
2023-03-29T07:20:28.264Z,0.60
2023-03-29T07:22:55.131Z,0.60
2023-03-29T07:25:25.186Z,0.20
2023-03-29T07:27:54.647Z,0.70
2023-03-29T07:30:23.957Z,0.77
2023-03-29T07:32:52.421Z,1.05
2023-03-29T07:35:19.316Z,0.68
2023-03-29T07:37:46.497Z,1.15
2023-03-29T07:40:18.910Z,1.08
2023-03-29T07:42:46.137Z,1.00
2023-03-29T07:45:13.736Z,0.70
2023-03-29T07:47:41.169Z,1.30
2023-03-29T07:50:08.833Z,0.95
2023-03-29T07:52:36.551Z,1.10
2023-03-29T07:55:03.811Z,0.88
2023-03-29T07:57:30.787Z,1.10
2023-03-29T07:59:58.311Z,0.70
2023-03-29T08:02:25.096Z,0.45
2023-03-29T08:04:53.495Z,0.45
2023-03-29T08:07:21.186Z,0.70
2023-03-29T08:09:48.664Z,0.52
2023-03-29T08:12:15.807Z,0.75
2023-03-29T08:14:42.482Z,1.27
2023-03-29T08:17:09.291Z,0.90
2023-03-29T08:19:36.210Z,0.40
2023-03-29T08:22:02.894Z,0.57
2023-03-29T08:24:29.662Z,0.93
2023-03-29T08:26:56.339Z,0.40
2023-03-29T08:29:23.128Z,0.80
2023-03-29T08:31:49.844Z,0.82
2023-03-29T08:34:16.613Z,0.70
2023-03-29T08:36:43.380Z,0.70
2023-03-29T08:39:10.037Z,1.33
2023-03-29T08:41:42.725Z,0.98
2023-03-29T08:44:11.915Z,1.60
2023-03-29T08:46:48.598Z,0.40
2023-03-29T08:49:15.350Z,0.60
2023-03-29T08:52:07.034Z,0.40
2023-03-29T08:54:40.650Z,0.68
2023-03-29T08:57:28.731Z,1.27
2023-03-29T08:59:55.639Z,0.63
2023-03-29T09:02:27.225Z,0.70
2023-03-29T09:04:58.108Z,0.95
2023-03-29T09:07:26.536Z,0.60
2023-03-29T09:09:53.510Z,0.60
2023-03-29T09:12:26.425Z,0.60
2023-03-29T09:14:53.105Z,0.60
2023-03-29T09:17:26.695Z,0.63
2023-03-29T09:20:12.588Z,0.50
2023-03-29T09:22:59.102Z,0.47
2023-03-29T09:25:53.427Z,1.10
2023-03-29T09:28:43.764Z,0.88
2023-03-29T09:31:26.754Z,0.68
2023-03-29T09:34:02.123Z,0.57
2023-03-29T09:36:52.618Z,0.95
2023-03-29T09:39:21.186Z,0.43
2023-03-29T09:42:09.193Z,0.60
2023-03-29T09:44:41.587Z,0.50
2023-03-29T09:47:15.347Z,0.63
2023-03-29T09:49:43.740Z,0.65
2023-03-29T09:52:13.053Z,0.82
2023-03-29T09:54:39.977Z,0.55
2023-03-29T09:57:06.986Z,0.88
2023-03-29T09:59:33.940Z,0.52
2023-03-29T10:02:12.975Z,0.55
2023-03-29T10:04:42.060Z,0.65
2023-03-29T10:07:09.889Z,0.80
2023-03-29T10:09:36.611Z,1.25
2023-03-29T10:12:06.686Z,0.35
2023-03-29T10:14:38.353Z,0.57
2023-03-29T10:17:07.217Z,0.68
2023-03-29T10:22:14.592Z,1.05
2023-03-29T10:24:41.223Z,1.13
2023-03-29T10:27:07.926Z,0.70
2023-03-29T10:29:40.054Z,0.60
2023-03-29T10:32:30.845Z,0.50
2023-03-29T10:35:06.064Z,0.73
2023-03-29T10:37:32.744Z,0.90
2023-03-29T10:39:59.625Z,0.60
2023-03-29T10:42:26.749Z,1.10
2023-03-29T10:45:00.171Z,0.70
2023-03-29T10:47:27.852Z,0.95
2023-03-29T10:49:59.133Z,0.47
2023-03-29T10:52:25.887Z,0.95
2023-03-29T10:54:54.015Z,0.88
2023-03-29T10:57:47.419Z,1.05
2023-03-29T11:00:20.760Z,0.80
2023-03-29T11:02:47.933Z,0.50
2023-03-29T11:05:24.744Z,0.55
2023-03-29T11:08:26.239Z,1.02
2023-03-29T11:10:56.127Z,0.52
2023-03-29T11:13:59.938Z,0.88
2023-03-29T11:16:47.083Z,0.65
2023-03-29T11:19:53.000Z,0.85
2023-03-29T11:22:44.863Z,0.70
2023-03-29T11:25:29.063Z,0.98
2023-03-29T11:28:01.392Z,1.20
2023-03-29T11:30:37.094Z,0.60
2023-03-29T11:33:38.157Z,0.88
2023-03-29T11:36:18.419Z,0.60
2023-03-29T11:38:56.116Z,0.50
2023-03-29T11:41:30.386Z,0.98
2023-03-29T11:44:00.120Z,0.80
2023-03-29T11:46:54.512Z,0.80
2023-03-29T11:49:46.334Z,1.80
2023-03-29T11:52:20.270Z,0.80
2023-03-29T11:54:57.357Z,2.70
2023-03-29T11:57:29.158Z,1.05
2023-03-29T12:00:04.482Z,1.52
2023-03-29T12:02:44.676Z,1.60
2023-03-29T12:05:21.610Z,0.65
2023-03-29T12:07:55.657Z,0.73
2023-03-29T12:10:30.983Z,0.70
2023-03-29T12:13:02.490Z,0.28
2023-03-29T12:18:22.828Z,0.50
2023-03-29T12:20:53.581Z,1.25
2023-03-29T12:23:20.584Z,1.17
2023-03-29T12:25:57.012Z,0.63
2023-03-29T12:28:44.542Z,0.50
2023-03-29T12:31:27.916Z,1.13
2023-03-29T12:34:10.996Z,0.60
2023-03-29T12:37:07.795Z,0.68
2023-03-29T12:39:36.138Z,0.90
2023-03-29T12:42:22.483Z,8.23
2023-03-29T12:44:51.437Z,1.90
2023-03-29T12:47:23.931Z,1.15
2023-03-29T12:49:59.206Z,0.80
2023-03-29T12:52:36.269Z,1.20
2023-03-29T12:55:25.248Z,2.85
2023-03-29T12:58:31.080Z,0.70
2023-03-29T13:01:31.222Z,0.85
2023-03-29T13:04:02.431Z,0.63
2023-03-29T13:06:57.338Z,0.90
2023-03-29T13:09:30.129Z,1.05
2023-03-29T13:12:27.169Z,0.60
2023-03-29T13:15:01.585Z,0.57
2023-03-29T13:17:36.998Z,1.27
2023-03-29T13:20:19.084Z,1.02
2023-03-29T13:22:56.191Z,0.57
2023-03-29T13:25:41.557Z,1.55
2023-03-29T13:28:47.243Z,1.40
2023-03-29T13:31:40.768Z,1.50
2023-03-29T13:34:39.879Z,1.00
2023-03-29T13:37:41.185Z,0.93
2023-03-29T13:40:40.599Z,0.55
2023-03-29T13:48:29.911Z,1.15
2023-03-29T13:51:20.561Z,3.20
2023-03-29T13:53:52.103Z,1.38
2023-03-29T13:56:23.382Z,0.68
2023-03-29T13:58:52.168Z,0.95
2023-03-29T14:01:58.071Z,1.17
2023-03-29T14:04:31.342Z,0.90
2023-03-29T14:06:58.457Z,2.72
2023-03-29T14:09:32.071Z,70.38
2023-03-29T14:12:01.760Z,10.25
2023-03-29T14:14:30.173Z,2.45
2023-03-29T14:16:57.065Z,1.48
2023-03-29T14:19:32.108Z,10.02
2023-03-29T14:22:02.185Z,15.85
2023-03-29T14:24:41.121Z,1.08
2023-03-29T14:27:10.219Z,2.38
2023-03-29T14:29:41.212Z,1.10
2023-03-29T14:32:11.034Z,1.13
2023-03-29T14:34:38.228Z,1.20
2023-03-29T14:37:09.452Z,2.83
2023-03-29T14:39:36.187Z,1.92
2023-03-29T14:42:02.880Z,1.45
2023-03-29T14:44:33.382Z,1.05
2023-03-29T14:47:00.915Z,1.83
2023-03-29T14:49:27.572Z,3.65
2023-03-29T14:51:54.876Z,1.83
2023-03-29T14:54:29.392Z,1.05
2023-03-29T14:56:56.099Z,1.77
2023-03-29T14:59:32.750Z,4.55
2023-03-29T15:01:59.409Z,12.07
2023-03-29T15:04:35.218Z,1.83
2023-03-29T15:07:04.307Z,8.50
2023-03-29T15:09:32.633Z,1.05
2023-03-29T15:11:59.783Z,3.08
2023-03-29T15:14:28.195Z,2.63
2023-03-29T15:16:58.643Z,1.05
2023-03-29T15:19:25.721Z,1.13
2023-03-29T15:21:52.565Z,1.90
2023-03-29T15:24:29.916Z,1.23
2023-03-29T15:27:01.411Z,1.35
2023-03-29T15:29:36.690Z,4.75
2023-03-29T15:32:03.794Z,1.63
2023-03-29T15:34:31.560Z,1.95
2023-03-29T15:36:58.525Z,2.42
2023-03-29T15:39:25.199Z,4.25
2023-03-29T15:41:52.444Z,3.78
2023-03-29T15:44:30.233Z,2.42
2023-03-29T15:46:57.807Z,1.92
2023-03-29T15:49:25.120Z,2.00
2023-03-29T15:51:54.030Z,2.40
2023-03-29T15:54:21.746Z,2.63
2023-03-29T15:56:50.458Z,3.63
2023-03-29T15:59:18.173Z,3.38
2023-03-29T16:01:44.967Z,5.78
2023-03-29T16:04:14.289Z,1.83
2023-03-29T16:06:41.433Z,1.70
2023-03-29T16:09:08.736Z,3.55
2023-03-29T16:11:35.638Z,2.00
2023-03-29T16:14:02.365Z,2.30
2023-03-29T16:16:29.324Z,4.63
2023-03-29T16:18:58.979Z,25.65
2023-03-29T16:21:26.537Z,7.85
2023-03-29T16:23:53.193Z,32.60
2023-03-29T16:26:19.870Z,10.13
2023-03-29T16:28:46.523Z,3.60
2023-03-29T16:31:13.769Z,4.82
2023-03-29T16:33:41.074Z,17.80
2023-03-29T16:36:09.638Z,17.63
2023-03-29T16:38:36.474Z,5.72
2023-03-29T16:41:03.887Z,7.95
2023-03-29T16:43:30.686Z,3.80
2023-03-29T16:45:57.492Z,15.85
2023-03-29T16:48:24.278Z,7.50
2023-03-29T16:50:51.089Z,5.07
2023-03-29T16:53:21.670Z,5.55
2023-03-29T16:55:48.697Z,7.55
2023-03-29T16:58:15.600Z,19.92
2023-03-29T17:00:44.393Z,11.88
2023-03-29T17:03:12.734Z,3.70
2023-03-29T17:05:42.291Z,1.95
2023-03-29T17:08:10.246Z,12.90
2023-03-29T17:10:39.491Z,9.30
2023-03-29T17:13:06.841Z,19.13
2023-03-29T17:15:33.735Z,17.10
2023-03-29T17:18:00.552Z,18.52
2023-03-29T17:20:27.305Z,5.57
2023-03-29T17:22:56.002Z,7.82
2023-03-29T17:25:23.183Z,9.23
2023-03-29T17:27:49.964Z,10.55
2023-03-29T17:30:16.774Z,13.05
2023-03-29T17:32:44.159Z,26.65
2023-03-29T17:35:10.954Z,10.02
2023-03-29T17:37:37.674Z,3.08
2023-03-29T17:40:11.479Z,5.38
2023-03-29T17:42:38.168Z,4.63
2023-03-29T17:45:05.435Z,6.82
2023-03-29T17:47:32.119Z,12.82
2023-03-29T17:49:58.868Z,13.02
2023-03-29T17:52:26.277Z,18.23
2023-03-29T17:54:52.935Z,15.45
2023-03-29T17:57:19.737Z,12.25
2023-03-29T17:59:46.571Z,25.92
2023-03-29T18:02:17.903Z,21.25
2023-03-29T18:04:44.745Z,21.80
2023-03-29T18:07:11.717Z,25.83
2023-03-29T18:09:38.506Z,18.77
2023-03-29T18:12:05.301Z,15.20
2023-03-29T18:14:32.007Z,14.20
2023-03-29T18:16:58.742Z,15.80
2023-03-29T18:19:25.519Z,21.50
2023-03-29T18:21:52.269Z,15.43
2023-03-29T18:24:18.979Z,15.68
2023-03-29T18:26:45.713Z,17.73
2023-03-29T18:29:12.571Z,21.45
2023-03-29T18:31:39.294Z,11.70
2023-03-29T18:34:06.003Z,27.13
2023-03-29T18:36:32.726Z,39.72
2023-03-29T18:39:05.797Z,31.08
2023-03-29T18:41:33.489Z,12.45
2023-03-29T18:44:00.883Z,15.50
2023-03-29T18:46:30.619Z,14.27
2023-03-29T18:48:58.549Z,22.73
2023-03-29T18:51:26.132Z,19.38
2023-03-29T18:53:52.904Z,15.40
2023-03-29T18:56:19.566Z,20.23
2023-03-29T18:58:46.486Z,22.05
2023-03-29T19:01:14.022Z,17.73
2023-03-29T19:03:40.921Z,15.35
2023-03-29T19:06:07.983Z,17.60
2023-03-29T19:08:36.806Z,19.10
2023-03-29T19:11:04.731Z,10.75
2023-03-29T19:13:31.523Z,15.35
2023-03-29T19:15:58.252Z,11.23
2023-03-29T19:18:25.463Z,12.07
2023-03-29T19:20:54.159Z,12.05
2023-03-29T19:23:22.009Z,12.73
2023-03-29T19:25:58.628Z,11.77
2023-03-29T19:28:26.152Z,10.23
2023-03-29T19:30:53.288Z,12.73
2023-03-29T19:33:20.222Z,10.30
2023-03-29T19:35:47.248Z,18.58
2023-03-29T19:38:14.470Z,6.43
2023-03-29T19:40:46.078Z,9.35
2023-03-29T19:43:17.588Z,9.80
2023-03-29T19:45:46.115Z,10.57
2023-03-29T19:48:21.904Z,7.93
2023-03-29T19:50:50.265Z,8.05
2023-03-29T19:53:16.993Z,7.63
2023-03-29T19:55:45.408Z,9.23
2023-03-29T19:58:12.785Z,7.50
2023-03-29T20:00:39.552Z,5.90
2023-03-29T20:03:09.928Z,6.28
2023-03-29T20:05:37.293Z,7.18
2023-03-29T20:08:04.028Z,5.93
2023-03-29T20:10:30.696Z,7.60
2023-03-29T20:12:57.365Z,8.30
2023-03-29T20:15:25.968Z,11.88
2023-03-29T20:17:54.487Z,10.52
2023-03-29T20:20:24.100Z,15.15
2023-03-29T20:22:53.962Z,17.27
2023-03-29T20:25:21.312Z,14.75
2023-03-29T20:27:49.485Z,14.88
2023-03-29T20:30:16.502Z,13.07
2023-03-29T20:32:43.300Z,13.77
2023-03-29T20:35:11.155Z,11.50
2023-03-29T20:37:37.822Z,11.52
2023-03-29T20:40:05.654Z,13.70
2023-03-29T20:42:34.419Z,12.48
2023-03-29T20:45:01.387Z,13.00
2023-03-29T20:47:29.504Z,8.18
2023-03-29T20:49:56.825Z,7.88
2023-03-29T20:52:24.445Z,7.32
2023-03-29T20:54:51.286Z,7.63
2023-03-29T20:57:19.737Z,13.23
2023-03-29T20:59:46.631Z,6.00
2023-03-29T21:02:21.705Z,14.27
2023-03-29T21:04:52.223Z,12.20
2023-03-29T21:07:20.140Z,13.48
2023-03-29T21:09:48.408Z,13.75
2023-03-29T21:12:15.040Z,15.73
2023-03-29T21:14:41.802Z,7.72
2023-03-29T21:17:09.551Z,13.82
2023-03-29T21:19:38.097Z,12.57
2023-03-29T21:22:05.030Z,13.75
2023-03-29T21:24:33.147Z,10.90
2023-03-29T21:27:00.666Z,15.38
2023-03-29T21:29:27.372Z,12.73
2023-03-29T21:31:54.451Z,15.88
2023-03-29T21:34:21.145Z,11.48
2023-03-29T21:36:47.802Z,10.57
2023-03-29T21:39:14.568Z,8.40
2023-03-29T21:41:41.220Z,11.30
2023-03-29T21:44:07.904Z,10.95
2023-03-29T21:46:34.796Z,6.85
2023-03-29T21:49:01.489Z,7.47
2023-03-29T21:51:28.150Z,10.80
2023-03-29T21:53:54.882Z,9.93
2023-03-29T21:56:22.477Z,8.68
2023-03-29T21:58:49.193Z,10.40
2023-03-29T22:01:16.349Z,9.50
2023-03-29T22:03:43.173Z,6.95
2023-03-29T22:06:12.860Z,7.72
2023-03-29T22:08:39.568Z,8.90
2023-03-29T22:11:11.053Z,8.27
2023-03-29T22:13:37.897Z,7.82
2023-03-29T22:16:04.907Z,8.73
2023-03-29T22:18:42.125Z,9.60
2023-03-29T22:21:14.516Z,6.80
2023-03-29T22:23:42.469Z,6.55
2023-03-29T22:26:09.913Z,12.57
2023-03-29T22:28:36.978Z,9.15
2023-03-29T22:31:05.237Z,8.13
2023-03-29T22:33:32.990Z,8.65
2023-03-29T22:36:00.661Z,8.73
2023-03-29T22:38:28.128Z,9.85
2023-03-29T22:40:55.470Z,10.60
2023-03-29T22:43:22.144Z,8.30
2023-03-29T22:45:48.880Z,5.47
2023-03-29T22:48:15.516Z,7.57
2023-03-29T22:50:42.987Z,9.68
2023-03-29T22:53:10.399Z,9.35
2023-03-29T22:55:37.212Z,8.55
2023-03-29T22:58:03.953Z,7.90
2023-03-29T23:00:30.972Z,7.68
2023-03-29T23:02:57.671Z,7.63
2023-03-29T23:05:24.401Z,9.88
2023-03-29T23:07:51.120Z,10.30
2023-03-29T23:10:17.782Z,7.47
2023-03-29T23:12:44.441Z,11.63
2023-03-29T23:15:11.760Z,9.77
2023-03-29T23:17:38.449Z,9.95
2023-03-29T23:20:10.819Z,9.38
2023-03-29T23:22:39.635Z,7.78
2023-03-29T23:25:06.840Z,7.47
2023-03-29T23:27:34.709Z,7.82
2023-03-29T23:30:01.749Z,6.70
2023-03-29T23:32:28.592Z,5.65
2023-03-29T23:34:55.413Z,4.65
2023-03-29T23:37:22.485Z,4.65
2023-03-29T23:39:49.129Z,5.10
2023-03-29T23:42:15.824Z,5.50
2023-03-29T23:44:42.755Z,3.83
2023-03-29T23:47:09.483Z,4.60
2023-03-29T23:49:36.315Z,9.73
2023-03-29T23:52:02.953Z,10.18
2023-03-29T23:54:29.695Z,7.05
2023-03-29T23:56:56.584Z,8.35
2023-03-29T23:59:26.948Z,6.25
